Hof Plauen, Germany

6:33 AM CEST on August 31, 2016 (GMT +0200)
Haidtanger | | Change Station

Elev 1654 ft 50.34 °N, 11.95 °E | Updated 6 seconds ago

Clear
Clear
41.7 °F
Feels Like 42 °F
N
0.0
Wind Variable Wind from SSW
Gusts 0.0 mph

Today
High -- | Low -- °F
--% Chance of Precip.
Yesterday
High -- | Low -- °F
Precip. -- in
Pressure 30.21 in
Visibility 6.2 miles
Clouds Clear
Windchill 42 °F
Dew Point 42 °F
Humidity 99%
Rainfall 0.00 in
Snow Depth Not available.
6:25 AM 7:58 PM
Waning Crescent, 2% visible
METAR ETIC 310358Z AUTO 00000KT 9999 CLR 07/06 A3022 RMK AO2 SLP229
Pressure 30.21 in
Visibility 6.2 miles
Clouds Clear
Windchill 42 °F
Dew Point 42 °F
Humidity 99%
Rainfall 0.00 in
Snow Depth Not available.
6:25 AM 7:58 PM
Waning Crescent, 2% visible
METAR ETIC 310358Z AUTO 00000KT 9999 CLR 07/06 A3022 RMK AO2 SLP229

10-Day Weather Forecast

×

Almanac

Astronomy

Aug. 31, 2016 Rise Set
Actual Time
Civil Twilight
Nautical Twilight
Astronomical Twilight
Moon
Length of Visible Light
Length of Day
Tomorrow will be .
, % of the Moon is Illuminated

Today's Extremes

Country Highs Country Lows

Community

WunderPhotos

Upload Photos

1,936,035 photos uploaded!

WunderBlog® & News

Nearby

Air Quality

  Air Quality AQ Index Pollutant
Not available.

Snow Depth

Station Depth Elevation

Earthquake Activity

City Distance Mag. Time & Date
Minimum magnitude displayed is 2.5.

Coastal Water Temperatures

Place Temperature

Stations

Nearby Weather Stations

Station Location Temp. Windchill Dew Point Humidity Wind Precip. Elev Updated Type